Salomonia, Indiana
Current Conditions -  °F | °C
As of 5:35 PM on Tuesday 21 Oct 2014 (Local Time) from KVES Reporting Station
Overcast Overcast  
Wind Chill: 44°   Ceiling: 3700
Heat Index: 48°   Visibility: 10mi
Dew Point: 43°   Wind: 10mph
Humidity: 82%   Direction: 360°N
Pressure: 30.1"   Gusts: NA
Location:  40.3534°N, 84.8526°W
Report Text: KVES 212135Z AUTO 36009KT 10SM OVC037 09/06 A3010 RMK AO2
Loading
Personal Weather Stations






























Interactive Weather Map
Tropical Storm Tracking
New forecast layout! Learn more

10-Day Weather Forecast

Advertisements
Track Severe Weather on mobile